Time;durP1;ratioP1;P1;durP2;ratioP2;P2;SDS_P1;SDS_P2;PMS_P1;PMS_P2;Temp;Humidity;BMP_temperature;BMP_pressure;BME280_temperature;BME280_humidity;BME280_pressure;Samples;Min_cycle;Max_cycle;Signal;HPM_P1;HPM_P2
2023/07/25 00:00:30;;;;;;;;;;;;;;;17.43;100.00;100538.81;5103315;28;19920;-52
2023/07/25 00:02:56;;;;;;;;;;;;;;;17.17;100.00;100532.19;5096274;28;19917;-54
2023/07/25 00:05:21;;;;;;;;;;;;;;;17.33;100.00;100535.94;5096243;28;19928;-55
2023/07/25 00:07:47;;;;;;;;;;;;;;;16.87;100.00;100541.44;5097015;28;19928;-53
2023/07/25 00:10:12;;;;;;;;;;;;;;;16.80;100.00;100541.59;5103304;28;19958;-51
2023/07/25 00:12:38;;;;;;;;;;;;;;;16.71;100.00;100540.31;5096395;28;19932;-52
2023/07/25 00:15:04;;;;;;;;;;;;;;;16.68;100.00;100547.06;5096638;28;19924;-55
2023/07/25 00:17:30;;;;;;;;;;;;;;;16.63;100.00;100542.38;5096149;28;19943;-54
2023/07/25 00:19:55;;;;;;;;;;;;;;;16.68;100.00;100538.94;5101299;28;19916;-52
2023/07/25 00:22:21;;;;;;;;;;;;;;;16.55;100.00;100536.53;5106585;28;19935;-56
2023/07/25 00:24:46;;;;;;;;;;;;;;;16.56;100.00;100540.88;5096066;28;19942;-50
2023/07/25 00:27:11;;;;;;;;;;;;;;;16.51;100.00;100544.34;5095594;28;19917;-55
2023/07/25 00:29:37;;;;;;;;;;;;;;;16.45;100.00;100539.88;5114135;28;19928;-54
2023/07/25 00:32:03;;;;;;;;;;;;;;;16.45;100.00;100534.47;5095441;28;19931;-55
2023/07/25 00:34:28;;;;;;;;;;;;;;;16.51;100.00;100544.34;5078216;28;19916;-55
2023/07/25 00:36:53;;;;;;;;;;;;;;;16.49;100.00;100541.84;5120716;28;19916;-55
2023/07/25 00:39:19;;;;;;;;;;;;;;;16.33;100.00;100540.75;5095428;28;19923;-54
2023/07/25 00:41:44;;;;;;;;;;;;;;;16.13;100.00;100548.47;5095322;28;19923;-55
2023/07/25 00:44:10;;;;;;;;;;;;;;;16.27;100.00;100549.00;5095492;28;19951;-52
2023/07/25 00:46:35;;;;;;;;;;;;;;;16.23;100.00;100543.25;5101461;28;19961;-54
2023/07/25 00:49:01;;;;;;;;;;;;;;;16.23;100.00;100547.84;5077837;28;19980;-57
2023/07/25 00:51:27;;;;;;;;;;;;;;;16.19;100.00;100545.63;5096016;28;19921;-56
2023/07/25 00:53:54;;;;;;;;;;;;;;;16.19;100.00;100537.53;5095582;28;19917;-57
2023/07/25 00:56:19;;;;;;;;;;;;;;;16.28;100.00;100537.97;5113363;28;19916;-56
2023/07/25 00:58:46;;;;;;;;;;;;;;;16.29;100.00;100546.88;5111465;28;19988;-57
2023/07/25 01:01:11;;;;;;;;;;;;;;;16.14;100.00;100545.50;5111160;28;19917;-56
2023/07/25 01:03:38;;;;;;;;;;;;;;;16.12;100.00;100549.53;5094887;28;19920;-57
2023/07/25 01:06:12;;;;;;;;;;;;;;;16.12;100.00;100542.22;5099265;28;19958;-59
2023/07/25 01:08:52;;;;;;;;;;;;;;;16.26;100.00;100533.88;5104209;28;19920;-57
2023/07/25 01:11:18;;;;;;;;;;;;;;;16.19;100.00;100531.31;5068862;28;19976;-56
2023/07/25 01:13:44;;;;;;;;;;;;;;;16.15;100.00;100531.00;5082462;28;19936;-53
2023/07/25 01:16:12;;;;;;;;;;;;;;;16.16;100.00;100527.22;5115081;28;19916;-58
2023/07/25 01:18:38;;;;;;;;;;;;;;;16.20;100.00;100528.38;5100561;28;19917;-56
2023/07/25 01:21:04;;;;;;;;;;;;;;;16.07;100.00;100525.97;5095192;28;19916;-55
2023/07/25 01:23:30;;;;;;;;;;;;;;;16.11;100.00;100524.41;5116068;28;19940;-57
2023/07/25 01:25:55;;;;;;;;;;;;;;;16.13;100.00;100522.28;5095044;28;19927;-57
2023/07/25 01:28:21;;;;;;;;;;;;;;;16.24;100.00;100522.50;5094836;28;19920;-57
2023/07/25 01:30:47;;;;;;;;;;;;;;;16.24;100.00;100523.31;5077434;28;19921;-56
2023/07/25 01:33:12;;;;;;;;;;;;;;;16.27;100.00;100522.00;5094678;28;19926;-55
2023/07/25 01:35:38;;;;;;;;;;;;;;;16.26;100.00;100525.78;5077393;28;19955;-56
2023/07/25 01:38:04;;;;;;;;;;;;;;;16.20;100.00;100525.69;5097955;28;19916;-56
2023/07/25 01:40:29;;;;;;;;;;;;;;;16.28;100.00;100523.66;5094647;28;19912;-56
2023/07/25 01:42:55;;;;;;;;;;;;;;;16.27;100.00;100517.47;5106741;28;19924;-53
2023/07/25 01:45:20;;;;;;;;;;;;;;;16.28;100.00;100523.66;5077135;28;19930;-55
2023/07/25 01:47:46;;;;;;;;;;;;;;;16.32;100.00;100519.41;5094762;28;19962;-57
2023/07/25 01:50:11;;;;;;;;;;;;;;;16.36;100.00;100520.56;5113432;28;19916;-54
2023/07/25 01:52:37;;;;;;;;;;;;;;;16.29;100.00;100525.28;5085187;28;19931;-58
2023/07/25 01:55:02;;;;;;;;;;;;;;;16.32;100.00;100525.63;5110214;28;19917;-53
2023/07/25 01:57:28;;;;;;;;;;;;;;;16.45;100.00;100519.13;5093841;28;19925;-55
2023/07/25 01:59:53;;;;;;;;;;;;;;;16.42;100.00;100525.00;5060989;28;19980;-54
2023/07/25 02:02:19;;;;;;;;;;;;;;;16.38;100.00;100520.31;5104238;28;19916;-54
2023/07/25 02:04:44;;;;;;;;;;;;;;;16.42;100.00;100522.31;5075618;28;19916;-58
2023/07/25 02:07:10;;;;;;;;;;;;;;;16.38;100.00;100514.94;5075930;28;19917;-58
2023/07/25 02:09:35;;;;;;;;;;;;;;;16.26;100.00;100509.59;5075825;28;19948;-58
2023/07/25 02:12:01;;;;;;;;;;;;;;;16.17;100.00;100504.59;5075263;28;19924;-55
2023/07/25 02:14:26;;;;;;;;;;;;;;;16.22;100.00;100503.84;5076032;28;19916;-56
2023/07/25 02:16:52;;;;;;;;;;;;;;;16.24;100.00;100509.00;5078142;28;19917;-56
2023/07/25 02:19:18;;;;;;;;;;;;;;;16.13;100.00;100503.41;5067925;28;20003;-56
2023/07/25 02:21:43;;;;;;;;;;;;;;;16.01;100.00;100506.16;5119605;28;19966;-56
2023/07/25 02:24:09;;;;;;;;;;;;;;;15.94;100.00;100502.78;5080114;28;19917;-54
2023/07/25 02:26:35;;;;;;;;;;;;;;;16.04;100.00;100500.31;5082139;28;19917;-51
2023/07/25 02:29:01;;;;;;;;;;;;;;;16.07;100.00;100493.59;5097712;28;19931;-57
2023/07/25 02:31:26;;;;;;;;;;;;;;;15.98;100.00;100492.34;5097430;28;19916;-51
2023/07/25 02:33:52;;;;;;;;;;;;;;;15.95;100.00;100490.94;5089552;28;20036;-52
2023/07/25 02:36:17;;;;;;;;;;;;;;;15.93;100.00;100498.44;5078865;28;19920;-56
2023/07/25 02:38:43;;;;;;;;;;;;;;;15.84;100.00;100497.97;5090574;28;19916;-54
2023/07/25 02:41:08;;;;;;;;;;;;;;;15.92;100.00;100499.50;5096581;28;19912;-55
2023/07/25 02:43:34;;;;;;;;;;;;;;;15.94;100.00;100496.59;5096793;28;19928;-54
2023/07/25 02:45:59;;;;;;;;;;;;;;;16.00;100.00;100501.00;5079489;28;19931;-51
2023/07/25 02:48:25;;;;;;;;;;;;;;;15.95;100.00;100503.63;5096661;28;19982;-55
2023/07/25 02:50:50;;;;;;;;;;;;;;;15.87;100.00;100502.88;5090488;28;19979;-55
2023/07/25 02:53:16;;;;;;;;;;;;;;;15.92;100.00;100499.50;5100269;28;19920;-57
2023/07/25 02:55:41;;;;;;;;;;;;;;;15.90;100.00;100497.03;5096588;28;19927;-53
2023/07/25 02:58:07;;;;;;;;;;;;;;;15.91;100.00;100501.41;5097677;28;19924;-57
2023/07/25 03:00:32;;;;;;;;;;;;;;;15.96;100.00;100502.56;5093203;28;19927;-53
2023/07/25 03:02:58;;;;;;;;;;;;;;;16.07;100.00;100496.28;5105166;28;19920;-53
2023/07/25 03:05:26;;;;;;;;;;;;;;;16.07;100.00;100498.97;5097060;28;19962;-55
2023/07/25 03:07:52;;;;;;;;;;;;;;;16.03;100.00;100508.63;5097213;28;19917;-54
2023/07/25 03:10:17;;;;;;;;;;;;;;;16.05;100.00;100504.63;5097120;28;19992;-53
2023/07/25 03:12:43;;;;;;;;;;;;;;;16.12;100.00;100504.47;5105072;28;19920;-57
2023/07/25 03:15:09;;;;;;;;;;;;;;;16.09;100.00;100504.16;5096289;28;19979;-56
2023/07/25 03:17:35;;;;;;;;;;;;;;;16.12;100.00;100501.78;5102428;28;20403;-56
2023/07/25 03:20:00;;;;;;;;;;;;;;;16.10;100.00;100498.50;5106402;28;19992;-54
2023/07/25 03:22:26;;;;;;;;;;;;;;;16.02;100.00;100504.28;5079752;28;19916;-53
2023/07/25 03:24:51;;;;;;;;;;;;;;;16.03;100.00;100511.31;5104071;28;19916;-55
2023/07/25 03:27:17;;;;;;;;;;;;;;;16.11;100.00;100505.53;5078785;28;19924;-55
2023/07/25 03:29:43;;;;;;;;;;;;;;;16.06;100.00;100502.75;5113059;28;19979;-52
2023/07/25 03:32:09;;;;;;;;;;;;;;;15.97;100.00;100506.91;5107489;28;19960;-57
2023/07/25 03:34:35;;;;;;;;;;;;;;;16.13;100.00;100506.09;5096940;28;19928;-55
2023/07/25 03:37:00;;;;;;;;;;;;;;;16.00;100.00;100506.41;5096773;28;19940;-55
2023/07/25 03:39:26;;;;;;;;;;;;;;;16.01;100.00;100508.03;5117172;28;19916;-54
2023/07/25 03:41:51;;;;;;;;;;;;;;;15.98;100.00;100498.53;5100022;28;19952;-52
2023/07/25 03:44:20;;;;;;;;;;;;;;;15.89;100.00;100500.00;5096281;28;21193;-55
2023/07/25 03:46:45;;;;;;;;;;;;;;;15.90;100.00;100502.44;5096704;28;19916;-50
2023/07/25 03:49:12;;;;;;;;;;;;;;;15.93;100.00;100501.16;5096276;28;19944;-56
2023/07/25 03:51:38;;;;;;;;;;;;;;;16.00;100.00;100499.13;5096050;28;19920;-55
2023/07/25 03:54:04;;;;;;;;;;;;;;;16.01;100.00;100497.25;5107131;28;19916;-53
2023/07/25 03:56:29;;;;;;;;;;;;;;;16.00;100.00;100499.13;5096249;28;19939;-52
2023/07/25 03:58:55;;;;;;;;;;;;;;;16.02;100.00;100494.31;5096298;28;19917;-54
2023/07/25 04:01:21;;;;;;;;;;;;;;;16.07;100.00;100496.28;5081008;28;19928;-55
2023/07/25 04:03:47;;;;;;;;;;;;;;;16.12;100.00;100498.28;5120181;28;20170;-55
2023/07/25 04:06:12;;;;;;;;;;;;;;;16.09;100.00;100499.56;5112164;28;19917;-55
2023/07/25 04:08:38;;;;;;;;;;;;;;;16.14;100.00;100498.84;5078641;28;19940;-54
2023/07/25 04:11:03;;;;;;;;;;;;;;;16.02;100.00;100502.41;5097335;28;19959;-55
2023/07/25 04:13:29;;;;;;;;;;;;;;;15.90;100.00;100498.94;5111959;28;19917;-56
2023/07/25 04:15:54;;;;;;;;;;;;;;;15.89;100.00;100500.00;5096045;28;19927;-54
2023/07/25 04:18:19;;;;;;;;;;;;;;;15.84;100.00;100503.38;5078331;28;19959;-52
2023/07/25 04:20:45;;;;;;;;;;;;;;;15.74;100.00;100492.38;5114965;28;19949;-54
2023/07/25 04:23:11;;;;;;;;;;;;;;;15.72;100.00;100494.50;5105201;28;19944;-55
2023/07/25 04:25:36;;;;;;;;;;;;;;;15.72;100.00;100497.19;5079537;28;19923;-54
2023/07/25 04:28:02;;;;;;;;;;;;;;;15.82;100.00;100488.50;5098667;28;19920;-56
2023/07/25 04:30:27;;;;;;;;;;;;;;;15.81;100.00;100484.16;5096873;28;19927;-56
2023/07/25 04:32:53;;;;;;;;;;;;;;;15.77;100.00;100481.94;5111872;28;19927;-56
2023/07/25 04:35:18;;;;;;;;;;;;;;;15.81;100.00;100486.88;5108487;28;19976;-54
2023/07/25 04:37:43;;;;;;;;;;;;;;;15.87;100.00;100484.00;5095829;28;19916;-56
2023/07/25 04:40:09;;;;;;;;;;;;;;;15.93;100.00;100484.16;5095275;28;19995;-56
2023/07/25 04:42:35;;;;;;;;;;;;;;;15.89;100.00;100490.00;5116027;28;19917;-56
2023/07/25 04:45:00;;;;;;;;;;;;;;;15.89;100.00;100490.00;5085337;28;19956;-55
2023/07/25 04:47:26;;;;;;;;;;;;;;;15.89;100.00;100490.00;5078242;28;19916;-52
2023/07/25 04:49:51;;;;;;;;;;;;;;;15.91;100.00;100497.88;5077987;28;19938;-52
2023/07/25 04:52:17;;;;;;;;;;;;;;;15.93;100.00;100500.34;5090216;28;19969;-53
2023/07/25 04:54:42;;;;;;;;;;;;;;;15.94;100.00;100502.78;5095386;28;19916;-57
2023/07/25 04:57:08;;;;;;;;;;;;;;;15.90;100.00;100501.63;5089721;28;19917;-52
2023/07/25 04:59:33;;;;;;;;;;;;;;;15.96;100.00;100519.53;5095254;28;19927;-51
2023/07/25 05:01:59;;;;;;;;;;;;;;;16.09;100.00;100518.44;5106624;28;19995;-51
2023/07/25 05:04:24;;;;;;;;;;;;;;;16.01;100.00;100518.84;5095005;28;19987;-54
2023/07/25 05:06:50;;;;;;;;;;;;;;;16.14;100.00;100521.22;5091949;28;19922;-50
2023/07/25 05:09:18;;;;;;;;;;;;;;;16.31;100.00;100520.47;5091651;28;19938;-54
2023/07/25 05:11:47;;;;;;;;;;;;;;;16.27;100.00;100524.72;5095048;28;19938;-56
2023/07/25 05:14:12;;;;;;;;;;;;;;;16.36;100.00;100519.75;5100525;28;19912;-53
2023/07/25 05:16:38;;;;;;;;;;;;;;;16.62;100.00;100521.03;5094937;28;19916;-54
2023/07/25 05:19:04;;;;;;;;;;;;;;;16.53;100.00;100530.56;5097043;28;19923;-53
2023/07/25 05:21:29;;;;;;;;;;;;;;;16.58;100.00;100528.78;5094893;28;19971;-53
2023/07/25 05:23:55;;;;;;;;;;;;;;;16.80;100.00;100532.66;5092215;28;19925;-52
2023/07/25 05:26:20;;;;;;;;;;;;;;;16.99;100.00;100531.38;5094934;28;19988;-52
2023/07/25 05:28:46;;;;;;;;;;;;;;;17.00;100.00;100532.22;5098239;28;19923;-54
2023/07/25 05:31:11;;;;;;;;;;;;;;;17.06;100.00;100537.41;5100983;28;19916;-56
2023/07/25 05:33:37;;;;;;;;;;;;;;;17.26;100.00;100533.41;5096599;28;19967;-55
2023/07/25 05:36:02;;;;;;;;;;;;;;;17.04;100.00;100533.34;5099975;28;19916;-58
2023/07/25 05:38:28;;;;;;;;;;;;;;;16.57;100.00;100535.25;5106480;28;20024;-54
2023/07/25 05:40:54;;;;;;;;;;;;;;;16.51;100.00;100538.09;5101212;28;19997;-52
2023/07/25 05:43:20;;;;;;;;;;;;;;;16.53;100.00;100539.50;5103839;28;19952;-54
2023/07/25 05:45:46;;;;;;;;;;;;;;;16.61;100.00;100543.69;5096724;28;19927;-55
2023/07/25 05:48:11;;;;;;;;;;;;;;;16.70;100.00;100534.13;5094601;28;19917;-55
2023/07/25 05:50:37;;;;;;;;;;;;;;;16.85;100.00;100530.06;5091377;28;19920;-53
2023/07/25 05:53:02;;;;;;;;;;;;;;;16.93;100.00;100529.63;5096264;28;19927;-54
2023/07/25 05:55:28;;;;;;;;;;;;;;;16.79;100.00;100534.53;5098587;28;19948;-56
2023/07/25 05:57:53;;;;;;;;;;;;;;;16.76;100.00;100545.84;5098476;28;19920;-55
2023/07/25 06:00:19;;;;;;;;;;;;;;;16.65;100.00;100544.84;5098329;28;19916;-57
2023/07/25 06:02:44;;;;;;;;;;;;;;;16.82;100.00;100552.13;5114393;28;19920;-55
2023/07/25 06:05:10;;;;;;;;;;;;;;;16.78;100.00;100554.50;5097499;28;19917;-53
2023/07/25 06:07:35;;;;;;;;;;;;;;;16.86;100.00;100558.69;5096120;28;19935;-57
2023/07/25 06:10:01;;;;;;;;;;;;;;;17.04;100.00;100553.06;5096825;28;19987;-55
2023/07/25 06:12:26;;;;;;;;;;;;;;;17.01;100.00;100561.66;5100251;28;20008;-54
2023/07/25 06:14:52;;;;;;;;;;;;;;;17.10;100.00;100556.66;5097806;28;20561;-56
2023/07/25 06:17:17;;;;;;;;;;;;;;;17.45;100.00;100552.06;5097442;28;19927;-55
2023/07/25 06:19:43;;;;;;;;;;;;;;;17.55;100.00;100554.06;5097629;28;19917;-56
2023/07/25 06:22:09;;;;;;;;;;;;;;;17.56;100.00;100553.00;5097476;28;19916;-53
2023/07/25 06:24:35;;;;;;;;;;;;;;;17.24;100.00;100553.66;5097933;28;19912;-55
2023/07/25 06:27:00;;;;;;;;;;;;;;;17.77;100.00;100543.31;5093568;28;19939;-55
2023/07/25 06:29:26;;;;;;;;;;;;;;;17.70;100.00;100532.66;5092202;28;19992;-56
2023/07/25 06:31:51;;;;;;;;;;;;;;;17.83;100.00;100536.88;5099468;28;19923;-54
2023/07/25 06:34:17;;;;;;;;;;;;;;;17.74;100.00;100536.50;5096220;28;19942;-59
2023/07/25 06:36:43;;;;;;;;;;;;;;;17.94;100.00;100543.22;5095898;28;19948;-56
2023/07/25 06:39:08;;;;;;;;;;;;;;;17.92;100.00;100543.47;5096216;28;19918;-56
2023/07/25 06:41:34;;;;;;;;;;;;;;;17.60;100.00;100537.91;5096378;28;19922;-52
2023/07/25 06:44:01;;;;;;;;;;;;;;;18.16;100.00;100545.94;5097753;28;19954;-59
2023/07/25 06:46:26;;;;;;;;;;;;;;;18.61;100.00;100543.97;5090208;28;19916;-55
2023/07/25 06:48:52;;;;;;;;;;;;;;;18.61;100.00;100557.53;5097393;28;19917;-51
2023/07/25 06:51:21;;;;;;;;;;;;;;;18.71;100.00;100545.13;5097161;28;19963;-55
2023/07/25 06:53:46;;;;;;;;;;;;;;;18.71;100.00;100554.09;5097286;28;19920;-55
2023/07/25 06:56:11;;;;;;;;;;;;;;;18.69;100.00;100553.53;5104998;28;19923;-56
2023/07/25 06:58:37;;;;;;;;;;;;;;;18.60;100.00;100547.75;5097538;28;19920;-57
2023/07/25 07:01:02;;;;;;;;;;;;;;;19.32;100.00;100544.81;5109869;28;19917;-58
2023/07/25 07:03:28;;;;;;;;;;;;;;;19.37;100.00;100546.75;5096554;28;19924;-54
2023/07/25 07:05:54;;;;;;;;;;;;;;;19.64;100.00;100551.22;5101528;28;19924;-54
2023/07/25 07:08:20;;;;;;;;;;;;;;;19.69;100.00;100551.25;5097308;28;19939;-52
2023/07/25 07:10:46;;;;;;;;;;;;;;;19.61;100.00;100557.19;5097219;28;19916;-55
2023/07/25 07:13:11;;;;;;;;;;;;;;;19.37;100.00;100551.34;5105031;28;19935;-57
2023/07/25 07:15:37;;;;;;;;;;;;;;;19.67;100.00;100552.59;5100804;28;19990;-58
2023/07/25 07:18:02;;;;;;;;;;;;;;;19.66;100.00;100553.69;5097036;28;19916;-57
2023/07/25 07:20:28;;;;;;;;;;;;;;;19.80;100.00;100548.59;5096856;28;19920;-55
2023/07/25 07:22:53;;;;;;;;;;;;;;;19.81;100.00;100553.75;5097084;28;19939;-57
2023/07/25 07:25:19;;;;;;;;;;;;;;;20.45;100.00;100556.44;5098032;28;19917;-57
2023/07/25 07:27:46;;;;;;;;;;;;;;;20.20;100.00;100564.25;5123194;28;19924;-57
2023/07/25 07:30:11;;;;;;;;;;;;;;;20.12;100.00;100564.78;5099961;28;19916;-55
2023/07/25 07:32:37;;;;;;;;;;;;;;;20.13;100.00;100557.44;5098089;28;19972;-57
2023/07/25 07:35:03;;;;;;;;;;;;;;;19.50;100.00;100561.72;5099692;28;19917;-57
2023/07/25 07:37:28;;;;;;;;;;;;;;;19.67;100.00;100561.56;5096514;28;19987;-57
2023/07/25 07:39:54;;;;;;;;;;;;;;;19.54;100.00;100556.59;5096092;28;19916;-57
2023/07/25 07:42:19;;;;;;;;;;;;;;;19.73;100.00;100562.41;5096398;28;19994;-53
2023/07/25 07:44:45;;;;;;;;;;;;;;;20.09;100.00;100568.03;5098128;28;19974;-55
2023/07/25 07:47:10;;;;;;;;;;;;;;;20.00;100.00;100566.88;5101093;28;19921;-59
2023/07/25 07:49:36;;;;;;;;;;;;;;;20.03;100.00;100575.31;5096333;28;19916;-58
2023/07/25 07:52:01;;;;;;;;;;;;;;;19.99;100.00;100568.78;5088581;28;19925;-58
2023/07/25 07:54:26;;;;;;;;;;;;;;;19.82;100.00;100568.94;5107832;28;19932;-58
2023/07/25 07:56:52;;;;;;;;;;;;;;;19.83;100.00;100575.19;5098218;28;19966;-57
2023/07/25 07:59:18;;;;;;;;;;;;;;;20.16;100.00;100592.19;5096163;28;19935;-58
2023/07/25 08:01:43;;;;;;;;;;;;;;;20.40;100.00;100592.53;5103356;28;19979;-58
2023/07/25 08:04:09;;;;;;;;;;;;;;;20.34;100.00;100591.69;5104322;28;19916;-58
2023/07/25 08:06:34;;;;;;;;;;;;;;;20.95;100.00;100594.81;5104231;28;19945;-54
2023/07/25 08:09:00;;;;;;;;;;;;;;;21.01;100.00;100591.03;5082075;28;20024;-58
2023/07/25 08:11:25;;;;;;;;;;;;;;;21.27;100.00;100601.88;5099523;28;19916;-58
2023/07/25 08:13:51;;;;;;;;;;;;;;;21.50;100.00;100610.56;5100927;28;20028;-58
2023/07/25 08:16:16;;;;;;;;;;;;;;;21.51;100.00;100616.81;5095575;28;19916;-59
2023/07/25 08:18:42;;;;;;;;;;;;;;;21.48;100.00;100607.31;5095743;28;19923;-59
2023/07/25 08:21:07;;;;;;;;;;;;;;;21.44;100.00;100611.63;5097033;28;19962;-59
2023/07/25 08:23:33;;;;;;;;;;;;;;;21.38;100.00;100607.31;5098257;28;19938;-57
2023/07/25 08:25:58;;;;;;;;;;;;;;;21.72;100.00;100614.91;5096846;28;20439;-57
2023/07/25 08:28:24;;;;;;;;;;;;;;;21.77;100.00;100614.88;5100140;28;19916;-57
2023/07/25 08:30:59;;;;;;;;;;;;;;;21.82;100.00;100623.03;5095661;28;19916;-56
2023/07/25 08:33:26;;;;;;;;;;;;;;;21.70;100.00;100622.53;5095137;28;19924;-57
2023/07/25 08:35:52;;;;;;;;;;;;;;;21.37;100.00;100611.13;5095634;28;19984;-58
2023/07/25 08:38:18;;;;;;;;;;;;;;;21.55;100.00;100626.03;5097907;28;19927;-58
2023/07/25 08:40:46;;;;;;;;;;;;;;;21.57;100.00;100626.59;5095167;28;19979;-56
2023/07/25 08:43:12;;;;;;;;;;;;;;;21.44;100.00;100625.25;5095236;28;19920;-58
2023/07/25 08:45:40;;;;;;;;;;;;;;;21.29;100.00;100632.34;5086173;28;19926;-55
2023/07/25 08:48:10;;;;;;;;;;;;;;;21.71;100.00;100638.56;5095187;28;19945;-56
2023/07/25 08:50:37;;;;;;;;;;;;;;;21.89;100.00;100634.44;5095473;28;19952;-57
2023/07/25 08:53:08;;;;;;;;;;;;;;;28.71;38.21;100660.09;5094959;28;20020;-58
2023/07/25 08:55:34;;;;;;;;;;;;;;;38.54;27.86;100659.66;5095371;28;19970;-58
2023/07/25 08:57:59;;;;;;;;;;;;;;;23.01;82.17;100644.22;5077788;28;19917;-57
2023/07/25 09:00:25;;;;;;;;;;;;;;;21.73;100.00;100641.03;5095082;28;19923;-59
2023/07/25 09:02:53;;;;;;;;;;;;;;;21.77;100.00;100633.94;5095004;28;19938;-58
2023/07/25 09:05:19;;;;;;;;;;;;;;;21.72;100.00;100642.13;5095077;28;19917;-56
2023/07/25 09:07:44;;;;;;;;;;;;;;;21.41;100.00;100644.84;5095003;28;19955;-57
2023/07/25 09:10:10;;;;;;;;;;;;;;;21.18;100.00;100638.84;5095070;28;19923;-58
2023/07/25 09:12:36;;;;;;;;;;;;;;;21.19;100.00;100637.78;5094716;28;19993;-58
2023/07/25 09:15:02;;;;;;;;;;;;;;;21.19;100.00;100648.63;5094893;28;19938;-59
2023/07/25 09:17:29;;;;;;;;;;;;;;;21.11;100.00;100649.19;5094750;28;19999;-57
2023/07/25 09:19:54;;;;;;;;;;;;;;;21.14;100.00;100654.09;5094916;28;19920;-57
2023/07/25 09:22:28;;;;;;;;;;;;;;;21.06;100.00;100642.69;5094542;28;19946;-53
2023/07/25 09:24:54;;;;;;;;;;;;;;;21.03;100.00;100645.94;5105199;28;19927;-56
2023/07/25 09:27:20;;;;;;;;;;;;;;;21.22;100.00;100648.13;5096113;28;19924;-56
2023/07/25 09:29:49;;;;;;;;;;;;;;;21.53;100.00;100650.00;5094992;28;19996;-58
2023/07/25 09:32:23;;;;;;;;;;;;;;;21.93;100.00;100645.59;5094012;28;19927;-58
2023/07/25 09:34:54;;;;;;;;;;;;;;;22.23;100.00;100653.94;5102410;28;19923;-57
2023/07/25 09:37:20;;;;;;;;;;;;;;;22.67;100.00;100657.81;5094723;28;19920;-59
2023/07/25 09:39:45;;;;;;;;;;;;;;;23.14;93.20;100663.78;5094783;28;19923;-59
2023/07/25 09:42:11;;;;;;;;;;;;;;;23.75;92.30;100648.78;5097889;28;19942;-60
2023/07/25 09:44:36;;;;;;;;;;;;;;;24.11;89.99;100655.00;5099392;28;19992;-58
2023/07/25 09:47:03;;;;;;;;;;;;;;;24.57;85.41;100648.09;5097795;28;19918;-58
2023/07/25 09:49:28;;;;;;;;;;;;;;;25.21;79.19;100653.19;5098988;28;19951;-57
2023/07/25 09:52:00;;;;;;;;;;;;;;;25.48;76.05;100663.41;5094846;28;20384;-59
2023/07/25 09:54:26;;;;;;;;;;;;;;;26.22;69.43;100676.56;5094575;28;19922;-59
2023/07/25 09:56:52;;;;;;;;;;;;;;;26.25;63.53;100668.56;5095142;28;19917;-57
2023/07/25 09:59:17;;;;;;;;;;;;;;;25.47;64.34;100666.47;5098378;28;19920;-59
2023/07/25 10:01:43;;;;;;;;;;;;;;;25.60;72.33;100667.59;5094520;28;19927;-58
2023/07/25 10:04:09;;;;;;;;;;;;;;;25.61;74.48;100656.34;5094269;28;20001;-58
2023/07/25 10:06:35;;;;;;;;;;;;;;;25.46;68.67;100664.81;5094699;28;19912;-59
2023/07/25 10:09:01;;;;;;;;;;;;;;;25.21;76.58;100664.13;5095496;28;19928;-58
2023/07/25 10:11:27;;;;;;;;;;;;;;;25.25;68.78;100664.31;5094281;28;19924;-58
2023/07/25 10:13:53;;;;;;;;;;;;;;;25.65;70.92;100666.69;5094082;28;19955;-59
2023/07/25 10:16:20;;;;;;;;;;;;;;;27.27;63.88;100665.72;5102793;28;19916;-59
2023/07/25 10:18:52;;;;;;;;;;;;;;;26.74;64.96;100671.59;5106724;28;19923;-59
2023/07/25 10:21:18;;;;;;;;;;;;;;;25.82;64.75;100657.88;5095015;28;19938;-57
2023/07/25 10:23:52;;;;;;;;;;;;;;;25.98;67.04;100664.69;5097376;28;19920;-57
2023/07/25 10:26:18;;;;;;;;;;;;;;;26.23;62.72;100668.06;5093912;28;19917;-58
2023/07/25 10:28:44;;;;;;;;;;;;;;;27.42;66.10;100668.09;5103064;28;19926;-59
2023/07/25 10:31:21;;;;;;;;;;;;;;;28.75;55.40;100677.59;5096346;28;19952;-58
2023/07/25 10:33:52;;;;;;;;;;;;;;;29.03;54.84;100669.81;5093842;28;19928;-58
2023/07/25 10:36:22;;;;;;;;;;;;;;;28.56;55.87;100678.72;5094063;28;19944;-59
2023/07/25 10:38:48;;;;;;;;;;;;;;;28.34;55.11;100676.88;5090634;28;19920;-58
2023/07/25 10:41:16;;;;;;;;;;;;;;;29.56;51.16;100680.78;5097362;28;19947;-58
2023/07/25 10:43:45;;;;;;;;;;;;;;;30.20;49.13;100675.47;5097595;28;19997;-58
2023/07/25 10:46:14;;;;;;;;;;;;;;;30.61;47.46;100673.13;5097523;28;19948;-59
2023/07/25 10:48:47;;;;;;;;;;;;;;;30.38;42.53;100681.69;5097637;28;19916;-59
2023/07/25 10:51:15;;;;;;;;;;;;;;;30.78;44.59;100685.16;5097415;28;19917;-59
2023/07/25 10:53:41;;;;;;;;;;;;;;;31.17;45.72;100681.06;5097470;28;19928;-59
2023/07/25 10:56:07;;;;;;;;;;;;;;;31.76;42.73;100683.84;5106354;28;19983;-60
2023/07/25 10:58:55;;;;;;;;;;;;;;;31.41;42.17;100681.50;5106051;28;19927;-60
2023/07/25 11:01:38;;;;;;;;;;;;;;;29.79;48.00;100676.94;5096700;28;19951;-60
2023/07/25 11:04:23;;;;;;;;;;;;;;;29.00;45.70;100684.22;5096895;28;19942;-59
2023/07/25 11:07:06;;;;;;;;;;;;;;;28.43;47.70;100682.41;5097050;28;19977;-58
2023/07/25 11:09:32;;;;;;;;;;;;;;;29.21;48.52;100680.81;5097054;28;19966;-59
2023/07/25 11:11:58;;;;;;;;;;;;;;;30.69;48.43;100672.25;5097969;28;20701;-59
2023/07/25 11:14:23;;;;;;;;;;;;;;;31.80;41.53;100687.56;5097009;28;19927;-59
2023/07/25 11:16:50;;;;;;;;;;;;;;;33.11;37.77;100691.50;5097152;28;19920;-58
2023/07/25 11:19:16;;;;;;;;;;;;;;;33.55;39.18;100677.66;5097064;28;19922;-59
2023/07/25 11:21:44;;;;;;;;;;;;;;;34.17;38.78;100681.91;5097204;28;19972;-59
2023/07/25 11:24:11;;;;;;;;;;;;;;;34.40;38.20;100682.03;5108423;28;19917;-59
2023/07/25 11:26:38;;;;;;;;;;;;;;;34.64;36.37;100682.13;5097056;28;19916;-59
2023/07/25 11:29:04;;;;;;;;;;;;;;;34.01;33.78;100682.72;5100813;28;19916;-59
2023/07/25 11:31:31;;;;;;;;;;;;;;;32.38;33.49;100681.13;5096675;28;19912;-60
2023/07/25 11:33:56;;;;;;;;;;;;;;;31.26;39.22;100669.97;5105556;28;19927;-59
2023/07/25 11:36:21;;;;;;;;;;;;;;;31.36;37.98;100678.94;5096549;28;19955;-60
2023/07/25 11:38:47;;;;;;;;;;;;;;;30.80;38.19;100672.66;5096690;28;19917;-60
2023/07/25 11:41:13;;;;;;;;;;;;;;;32.74;36.27;100681.38;5096431;28;19916;-61
2023/07/25 11:43:39;;;;;;;;;;;;;;;33.35;35.50;100676.72;5096745;28;19931;-59
2023/07/25 11:46:04;;;;;;;;;;;;;;;34.35;33.86;100679.53;5096781;28;19917;-60
2023/07/25 11:48:30;;;;;;;;;;;;;;;35.46;31.82;100684.91;5100788;28;19927;-59
2023/07/25 11:50:57;;;;;;;;;;;;;;;36.23;32.57;100684.16;5102175;28;19978;-59
2023/07/25 11:53:25;;;;;;;;;;;;;;;36.50;32.29;100692.47;5096179;28;19921;-60
2023/07/25 11:55:51;;;;;;;;;;;;;;;35.36;32.67;100677.19;5096193;28;19917;-60
2023/07/25 11:58:20;;;;;;;;;;;;;;;32.80;35.50;100685.47;5097970;28;19916;-59
2023/07/25 12:00:51;;;;;;;;;;;;;;;31.83;37.28;100670.31;5101115;28;19917;-58
2023/07/25 12:03:24;;;;;;;;;;;;;;;31.80;39.40;100681.25;5096353;28;19948;-60
2023/07/25 12:05:56;;;;;;;;;;;;;;;31.98;36.77;100677.09;5096616;28;20001;-60
2023/07/25 12:08:48;;;;;;;;;;;;;;;31.29;39.10;100685.84;5097579;28;19940;-59
2023/07/25 12:11:14;;;;;;;;;;;;;;;32.94;35.86;100684.31;5093274;28;19916;-60
2023/07/25 12:13:46;;;;;;;;;;;;;;;33.77;36.63;100689.28;5105203;28;19931;-63
2023/07/25 12:16:24;;;;;;;;;;;;;;;35.16;34.52;100688.34;5095590;28;19942;-59
2023/07/25 12:18:55;;;;;;;;;;;;;;;36.07;32.73;100699.03;5096780;28;19951;-59
2023/07/25 12:21:26;;;;;;;;;;;;;;;35.61;30.23;100694.31;5095372;28;19991;-59
2023/07/25 12:23:52;;;;;;;;;;;;;;;36.39;31.32;100698.69;5102614;28;19938;-59